sensor_id;sensor_type;location;lat;lon;timestamp;pressure;altitude;pressure_sealevel;temperature;humidity
11448;BME280;43755;49.736;8.734;2023-01-28T00:00:52;98589.97;;;0.86;100.00
11448;BME280;43755;49.736;8.734;2023-01-28T00:02:54;98577.78;;;0.83;100.00
11448;BME280;43755;49.736;8.734;2023-01-28T00:04:55;98580.41;;;0.81;100.00
11448;BME280;43755;49.736;8.734;2023-01-28T00:06:57;98574.34;;;0.86;100.00
11448;BME280;43755;49.736;8.734;2023-01-28T00:08:58;98576.06;;;0.85;100.00
11448;BME280;43755;49.736;8.734;2023-01-28T00:11:02;98570.84;;;0.82;100.00
11448;BME280;43755;49.736;8.734;2023-01-28T00:13:03;98573.44;;;0.83;100.00
11448;BME280;43755;49.736;8.734;2023-01-28T00:15:06;98572.56;;;0.83;100.00
11448;BME280;43755;49.736;8.734;2023-01-28T00:17:07;98574.34;;;0.87;100.00
11448;BME280;43755;49.736;8.734;2023-01-28T00:19:09;98575.22;;;0.89;100.00
11448;BME280;43755;49.736;8.734;2023-01-28T00:21:12;98578.69;;;0.91;100.00
11448;BME280;43755;49.736;8.734;2023-01-28T00:23:13;98567.41;;;0.88;100.00
11448;BME280;43755;49.736;8.734;2023-01-28T00:25:15;98576.09;;;0.91;100.00
11448;BME280;43755;49.736;8.734;2023-01-28T00:27:18;98567.38;;;0.85;100.00
11448;BME280;43755;49.736;8.734;2023-01-28T00:29:19;98574.31;;;0.79;100.00
11448;BME280;43755;49.736;8.734;2023-01-28T00:31:22;98571.69;;;0.79;100.00
11448;BME280;43755;49.736;8.734;2023-01-28T00:33:24;98571.69;;;0.79;100.00
11448;BME280;43755;49.736;8.734;2023-01-28T00:35:25;98558.72;;;0.87;100.00
11448;BME280;43755;49.736;8.734;2023-01-28T00:37:27;98565.63;;;0.80;100.00
11448;BME280;43755;49.736;8.734;2023-01-28T00:39:28;98569.13;;;0.81;100.00
11448;BME280;43755;49.736;8.734;2023-01-28T00:41:29;98552.63;;;0.80;100.00
11448;BME280;43755;49.736;8.734;2023-01-28T00:43:32;98557.84;;;0.85;100.00
11448;BME280;43755;49.736;8.734;2023-01-28T00:45:34;98555.22;;;0.85;100.00
11448;BME280;43755;49.736;8.734;2023-01-28T00:47:35;98565.63;;;0.83;100.00
11448;BME280;43755;49.736;8.734;2023-01-28T00:49:36;98556.97;;;0.85;100.00
11448;BME280;43755;49.736;8.734;2023-01-28T00:51:38;98561.28;;;0.82;100.00
11448;BME280;43755;49.736;8.734;2023-01-28T00:53:40;98567.38;;;0.83;100.00
11448;BME280;43755;49.736;8.734;2023-01-28T00:55:41;98560.44;;;0.82;100.00
11448;BME280;43755;49.736;8.734;2023-01-28T00:57:42;98563.88;;;0.76;100.00
11448;BME280;43755;49.736;8.734;2023-01-28T00:59:45;98566.47;;;0.75;100.00
11448;BME280;43755;49.736;8.734;2023-01-28T01:01:46;98565.63;;;0.80;100.00
11448;BME280;43755;49.736;8.734;2023-01-28T01:03:48;98563.84;;;0.73;100.00
11448;BME280;43755;49.736;8.734;2023-01-28T01:05:56;98561.25;;;0.73;100.00
11448;BME280;43755;49.736;8.734;2023-01-28T01:07:58;98559.56;;;0.85;100.00
11448;BME280;43755;49.736;8.734;2023-01-28T01:09:59;98563.91;;;0.84;100.00
11448;BME280;43755;49.736;8.734;2023-01-28T01:12:01;98567.38;;;0.83;100.00
11448;BME280;43755;49.736;8.734;2023-01-28T01:14:03;98576.94;;;0.84;100.00
11448;BME280;43755;49.736;8.734;2023-01-28T01:16:10;98575.19;;;0.81;100.00
11448;BME280;43755;49.736;8.734;2023-01-28T01:18:12;98576.03;;;0.79;100.00
11448;BME280;43755;49.736;8.734;2023-01-28T01:20:15;98581.25;;;0.79;100.00
11448;BME280;43755;49.736;8.734;2023-01-28T01:22:17;98575.16;;;0.75;100.00
11448;BME280;43755;49.736;8.734;2023-01-28T01:24:18;98574.28;;;0.75;100.00
11448;BME280;43755;49.736;8.734;2023-01-28T01:26:20;98576.03;;;0.74;100.00
11448;BME280;43755;49.736;8.734;2023-01-28T01:28:22;98584.69;;;0.72;100.00
11448;BME280;43755;49.736;8.734;2023-01-28T01:30:23;98581.22;;;0.73;100.00
11448;BME280;43755;49.736;8.734;2023-01-28T01:32:28;98586.41;;;0.73;100.00
11448;BME280;43755;49.736;8.734;2023-01-28T01:34:30;98585.56;;;0.77;100.00
11448;BME280;43755;49.736;8.734;2023-01-28T01:36:31;98582.94;;;0.69;100.00
11448;BME280;43755;49.736;8.734;2023-01-28T01:38:33;98581.22;;;0.73;100.00
11448;BME280;43755;49.736;8.734;2023-01-28T01:40:34;98587.28;;;0.69;100.00
11448;BME280;43755;49.736;8.734;2023-01-28T01:42:36;98589.00;;;0.68;100.00
11448;BME280;43755;49.736;8.734;2023-01-28T01:45:00;98584.69;;;0.73;100.00
11448;BME280;43755;49.736;8.734;2023-01-28T01:47:01;98584.69;;;0.72;100.00
11448;BME280;43755;49.736;8.734;2023-01-28T01:49:13;98587.28;;;0.73;100.00
11448;BME280;43755;49.736;8.734;2023-01-28T01:51:20;98592.53;;;0.76;100.00
11448;BME280;43755;49.736;8.734;2023-01-28T01:53:24;98593.34;;;0.69;100.00
11448;BME280;43755;49.736;8.734;2023-01-28T01:55:28;98595.13;;;0.75;100.00
11448;BME280;43755;49.736;8.734;2023-01-28T01:57:33;98596.81;;;0.67;100.00
11448;BME280;43755;49.736;8.734;2023-01-28T01:59:36;98591.63;;;0.71;100.00
11448;BME280;43755;49.736;8.734;2023-01-28T02:01:38;98595.97;;;0.77;100.00
11448;BME280;43755;49.736;8.734;2023-01-28T02:03:45;98599.50;;;0.80;100.00
11448;BME280;43755;49.736;8.734;2023-01-28T02:05:49;98585.63;;;0.86;100.00
11448;BME280;43755;49.736;8.734;2023-01-28T02:07:52;98596.81;;;0.71;100.00
11448;BME280;43755;49.736;8.734;2023-01-28T02:10:15;98599.44;;;0.68;100.00
11448;BME280;43755;49.736;8.734;2023-01-28T02:12:20;98600.31;;;0.69;100.00
11448;BME280;43755;49.736;8.734;2023-01-28T02:14:26;98594.19;;;0.67;100.00
11448;BME280;43755;49.736;8.734;2023-01-28T02:16:30;98591.63;;;0.68;100.00
11448;BME280;43755;49.736;8.734;2023-01-28T02:18:32;98597.66;;;0.66;100.00
11448;BME280;43755;49.736;8.734;2023-01-28T02:20:44;98603.69;;;0.57;100.00
11448;BME280;43755;49.736;8.734;2023-01-28T02:23:14;98598.44;;;0.51;100.00
11448;BME280;43755;49.736;8.734;2023-01-28T02:25:35;98603.72;;;0.62;100.00
11448;BME280;43755;49.736;8.734;2023-01-28T02:27:57;98603.69;;;0.56;100.00
11448;BME280;43755;49.736;8.734;2023-01-28T02:30:09;98604.63;;;0.64;100.00
11448;BME280;43755;49.736;8.734;2023-01-28T02:32:19;98602.88;;;0.63;100.00
11448;BME280;43755;49.736;8.734;2023-01-28T02:34:30;98599.44;;;0.73;100.00
11448;BME280;43755;49.736;8.734;2023-01-28T02:36:39;98595.03;;;0.61;100.00
11448;BME280;43755;49.736;8.734;2023-01-28T02:38:45;98597.56;;;0.49;100.00
11448;BME280;43755;49.736;8.734;2023-01-28T02:40:52;98595.03;;;0.60;100.00
11448;BME280;43755;49.736;8.734;2023-01-28T02:43:06;98597.59;;;0.55;100.00
11448;BME280;43755;49.736;8.734;2023-01-28T02:45:16;98594.19;;;0.62;100.00
11448;BME280;43755;49.736;8.734;2023-01-28T02:47:18;98590.66;;;0.51;100.00
11448;BME280;43755;49.736;8.734;2023-01-28T02:49:40;98595.91;;;0.59;100.00
11448;BME280;43755;49.736;8.734;2023-01-28T02:51:52;98600.22;;;0.60;100.00
11448;BME280;43755;49.736;8.734;2023-01-28T02:54:01;98599.31;;;0.50;100.00
11448;BME280;43755;49.736;8.734;2023-01-28T02:56:12;98606.22;;;0.45;100.00
11448;BME280;43755;49.736;8.734;2023-01-28T02:58:21;98603.63;;;0.47;100.00
11448;BME280;43755;49.736;8.734;2023-01-28T03:00:26;98591.44;;;0.39;100.00
11448;BME280;43755;49.736;8.734;2023-01-28T03:02:35;98592.25;;;0.34;100.00
11448;BME280;43755;49.736;8.734;2023-01-28T03:04:41;98603.56;;;0.34;100.00
11448;BME280;43755;49.736;8.734;2023-01-28T03:06:46;98588.78;;;0.32;100.00
11448;BME280;43755;49.736;8.734;2023-01-28T03:08:52;98593.13;;;0.34;100.00
11448;BME280;43755;49.736;8.734;2023-01-28T03:11:12;98602.66;;;0.35;100.00
11448;BME280;43755;49.736;8.734;2023-01-28T03:13:32;98599.25;;;0.41;100.00
11448;BME280;43755;49.736;8.734;2023-01-28T03:15:51;98607.00;;;0.36;100.00
11448;BME280;43755;49.736;8.734;2023-01-28T03:18:12;98607.94;;;0.43;100.00
11448;BME280;43755;49.736;8.734;2023-01-28T03:20:38;98600.13;;;0.40;100.00
11448;BME280;43755;49.736;8.734;2023-01-28T03:23:02;98602.72;;;0.40;100.00
11448;BME280;43755;49.736;8.734;2023-01-28T03:25:26;98604.47;;;0.43;100.00
11448;BME280;43755;49.736;8.734;2023-01-28T03:27:49;98604.47;;;0.41;100.00
11448;BME280;43755;49.736;8.734;2023-01-28T03:30:13;98613.97;;;0.37;100.00
11448;BME280;43755;49.736;8.734;2023-01-28T03:32:35;98606.16;;;0.34;100.00
11448;BME280;43755;49.736;8.734;2023-01-28T03:34:56;98619.16;;;0.34;100.00
11448;BME280;43755;49.736;8.734;2023-01-28T03:37:15;98614.06;;;0.51;100.00
11448;BME280;43755;49.736;8.734;2023-01-28T03:39:18;98621.06;;;0.57;100.00
11448;BME280;43755;49.736;8.734;2023-01-28T03:41:23;98617.56;;;0.52;100.00
11448;BME280;43755;49.736;8.734;2023-01-28T03:43:25;98620.13;;;0.49;100.00
11448;BME280;43755;49.736;8.734;2023-01-28T03:45:28;98623.56;;;0.45;100.00
11448;BME280;43755;49.736;8.734;2023-01-28T03:47:30;98631.41;;;0.49;100.00
11448;BME280;43755;49.736;8.734;2023-01-28T03:49:31;98629.66;;;0.47;100.00
11448;BME280;43755;49.736;8.734;2023-01-28T03:51:33;98627.91;;;0.44;100.00
11448;BME280;43755;49.736;8.734;2023-01-28T03:53:34;98636.53;;;0.38;100.00
11448;BME280;43755;49.736;8.734;2023-01-28T03:55:35;98640.91;;;0.43;100.00
11448;BME280;43755;49.736;8.734;2023-01-28T03:57:37;98634.84;;;0.40;100.00
11448;BME280;43755;49.736;8.734;2023-01-28T03:59:38;98635.75;;;0.47;100.00
11448;BME280;43755;49.736;8.734;2023-01-28T04:01:41;98633.88;;;0.31;100.00
11448;BME280;43755;49.736;8.734;2023-01-28T04:03:43;98640.88;;;0.35;100.00
11448;BME280;43755;49.736;8.734;2023-01-28T04:05:46;98641.69;;;0.31;100.00
11448;BME280;43755;49.736;8.734;2023-01-28T04:07:48;98639.97;;;0.36;100.00
11448;BME280;43755;49.736;8.734;2023-01-28T04:09:51;98639.97;;;0.36;100.00
11448;BME280;43755;49.736;8.734;2023-01-28T04:11:52;98646.06;;;0.36;100.00
11448;BME280;43755;49.736;8.734;2023-01-28T04:13:54;98650.34;;;0.28;100.00
11448;BME280;43755;49.736;8.734;2023-01-28T04:15:55;98648.56;;;0.24;100.00
11448;BME280;43755;49.736;8.734;2023-01-28T04:17:58;98647.78;;;0.33;100.00
11448;BME280;43755;49.736;8.734;2023-01-28T04:19:59;98644.34;;;0.38;100.00
11448;BME280;43755;49.736;8.734;2023-01-28T04:22:02;98646.06;;;0.36;100.00
11448;BME280;43755;49.736;8.734;2023-01-28T04:24:04;98651.28;;;0.35;100.00
11448;BME280;43755;49.736;8.734;2023-01-28T04:26:06;98646.06;;;0.33;100.00
11448;BME280;43755;49.736;8.734;2023-01-28T04:28:08;98648.66;;;0.36;100.00
11448;BME280;43755;49.736;8.734;2023-01-28T04:30:10;98646.16;;;0.46;100.00
11448;BME280;43755;49.736;8.734;2023-01-28T04:32:11;98645.19;;;0.36;100.00
11448;BME280;43755;49.736;8.734;2023-01-28T04:34:14;98651.28;;;0.38;100.00
11448;BME280;43755;49.736;8.734;2023-01-28T04:36:16;98650.34;;;0.28;100.00
11448;BME280;43755;49.736;8.734;2023-01-28T04:38:18;98651.22;;;0.29;100.00
11448;BME280;43755;49.736;8.734;2023-01-28T04:40:19;98648.59;;;0.27;100.00
11448;BME280;43755;49.736;8.734;2023-01-28T04:42:21;98639.94;;;0.31;100.00
11448;BME280;43755;49.736;8.734;2023-01-28T04:44:22;98646.00;;;0.30;100.00
11448;BME280;43755;49.736;8.734;2023-01-28T04:46:23;98652.09;;;0.31;100.00
11448;BME280;43755;49.736;8.734;2023-01-28T04:48:25;98651.19;;;0.26;100.00
11448;BME280;43755;49.736;8.734;2023-01-28T04:50:28;98652.09;;;0.32;100.00
11448;BME280;43755;49.736;8.734;2023-01-28T04:52:29;98651.25;;;0.36;100.00
11448;BME280;43755;49.736;8.734;2023-01-28T04:54:30;98654.75;;;0.37;100.00
11448;BME280;43755;49.736;8.734;2023-01-28T04:56:32;98653.84;;;0.33;100.00
11448;BME280;43755;49.736;8.734;2023-01-28T04:58:33;98661.63;;;0.29;100.00
11448;BME280;43755;49.736;8.734;2023-01-28T05:00:35;98652.91;;;0.22;100.00
11448;BME280;43755;49.736;8.734;2023-01-28T05:02:36;98659.03;;;0.32;100.00
11448;BME280;43755;49.736;8.734;2023-01-28T05:04:37;98658.09;;;0.21;100.00
11448;BME280;43755;49.736;8.734;2023-01-28T05:06:40;98653.84;;;0.33;100.00
11448;BME280;43755;49.736;8.734;2023-01-28T05:08:41;98647.84;;;0.40;100.00
11448;BME280;43755;49.736;8.734;2023-01-28T05:10:45;98650.44;;;0.39;100.00
11448;BME280;43755;49.736;8.734;2023-01-28T05:12:47;98650.44;;;0.42;100.00
11448;BME280;43755;49.736;8.734;2023-01-28T05:14:48;98655.53;;;0.30;100.00
11448;BME280;43755;49.736;8.734;2023-01-28T05:16:50;98656.47;;;0.33;100.00
11448;BME280;43755;49.736;8.734;2023-01-28T05:18:51;98663.41;;;0.34;100.00
11448;BME280;43755;49.736;8.734;2023-01-28T05:20:52;98665.16;;;0.38;100.00
11448;BME280;43755;49.736;8.734;2023-01-28T05:22:55;98663.41;;;0.37;100.00
11448;BME280;43755;49.736;8.734;2023-01-28T05:24:57;98665.91;;;0.22;100.00
11448;BME280;43755;49.736;8.734;2023-01-28T05:26:58;98665.88;;;0.19;100.00
11448;BME280;43755;49.736;8.734;2023-01-28T05:28:59;98665.06;;;0.26;100.00
11448;BME280;43755;49.736;8.734;2023-01-28T05:31:02;98668.63;;;0.37;100.00
11448;BME280;43755;49.736;8.734;2023-01-28T05:33:03;98660.75;;;0.28;100.00
11448;BME280;43755;49.736;8.734;2023-01-28T05:35:06;98670.22;;;0.17;100.00
11448;BME280;43755;49.736;8.734;2023-01-28T05:37:07;98671.06;;;0.18;100.00
11448;BME280;43755;49.736;8.734;2023-01-28T05:39:10;98673.72;;;0.24;100.00
11448;BME280;43755;49.736;8.734;2023-01-28T05:41:11;98672.75;;;0.14;100.00
11448;BME280;43755;49.736;8.734;2023-01-28T05:43:13;98677.13;;;0.15;100.00
11448;BME280;43755;49.736;8.734;2023-01-28T05:45:15;98684.88;;;0.09;100.00
11448;BME280;43755;49.736;8.734;2023-01-28T05:47:16;98682.34;;;0.17;100.00
11448;BME280;43755;49.736;8.734;2023-01-28T05:49:18;98683.28;;;0.23;100.00
11448;BME280;43755;49.736;8.734;2023-01-28T05:51:19;98691.13;;;0.28;100.00
11448;BME280;43755;49.736;8.734;2023-01-28T05:53:21;98684.09;;;0.19;100.00
11448;BME280;43755;49.736;8.734;2023-01-28T05:55:23;98693.63;;;0.17;100.00
11448;BME280;43755;49.736;8.734;2023-01-28T05:57:25;98694.41;;;0.10;100.00
11448;BME280;43755;49.736;8.734;2023-01-28T05:59:27;98686.63;;;0.12;100.00
11448;BME280;43755;49.736;8.734;2023-01-28T06:01:28;98694.47;;;0.15;100.00
11448;BME280;43755;49.736;8.734;2023-01-28T06:03:30;98701.44;;;0.17;100.00
11448;BME280;43755;49.736;8.734;2023-01-28T06:05:31;98704.13;;;0.28;100.00
11448;BME280;43755;49.736;8.734;2023-01-28T06:07:32;98699.69;;;0.19;100.00
11448;BME280;43755;49.736;8.734;2023-01-28T06:09:34;98703.22;;;0.23;100.00
11448;BME280;43755;49.736;8.734;2023-01-28T06:11:36;98714.38;;;0.13;100.00
11448;BME280;43755;49.736;8.734;2023-01-28T06:13:38;98718.69;;;0.09;100.00
11448;BME280;43755;49.736;8.734;2023-01-28T06:15:40;98715.19;;;0.06;100.00
11448;BME280;43755;49.736;8.734;2023-01-28T06:17:42;98719.53;;;0.08;100.00
11448;BME280;43755;49.736;8.734;2023-01-28T06:19:43;98714.41;;;0.14;100.00
11448;BME280;43755;49.736;8.734;2023-01-28T06:21:45;98719.59;;;0.11;100.00
11448;BME280;43755;49.736;8.734;2023-01-28T06:23:46;98717.84;;;0.13;100.00
11448;BME280;43755;49.736;8.734;2023-01-28T06:25:52;98732.78;;;0.29;100.00
11448;BME280;43755;49.736;8.734;2023-01-28T06:27:55;98715.31;;;0.19;100.00
11448;BME280;43755;49.736;8.734;2023-01-28T06:29:56;98734.31;;;0.12;100.00
11448;BME280;43755;49.736;8.734;2023-01-28T06:31:58;98733.41;;;0.07;100.00
11448;BME280;43755;49.736;8.734;2023-01-28T06:33:59;98736.03;;;0.09;100.00
11448;BME280;43755;49.736;8.734;2023-01-28T06:36:01;98741.19;;;0.04;100.00
11448;BME280;43755;49.736;8.734;2023-01-28T06:38:03;98737.72;;;0.05;100.00
11448;BME280;43755;49.736;8.734;2023-01-28T06:40:05;98747.25;;;0.06;100.00
11448;BME280;43755;49.736;8.734;2023-01-28T06:42:07;98750.75;;;0.08;100.00
11448;BME280;43755;49.736;8.734;2023-01-28T06:44:09;98749.00;;;0.06;100.00
11448;BME280;43755;49.736;8.734;2023-01-28T06:46:11;98757.66;;;0.06;100.00
11448;BME280;43755;49.736;8.734;2023-01-28T06:48:12;98750.69;;;0.02;100.00
11448;BME280;43755;49.736;8.734;2023-01-28T06:50:14;98755.94;;;0.05;100.00
11448;BME280;43755;49.736;8.734;2023-01-28T06:52:16;98762.03;;;0.09;100.00
11448;BME280;43755;49.736;8.734;2023-01-28T06:54:17;98747.38;;;0.15;100.00
11448;BME280;43755;49.736;8.734;2023-01-28T06:56:19;98755.13;;;0.12;100.00
11448;BME280;43755;49.736;8.734;2023-01-28T06:58:20;98759.53;;;0.16;100.00
11448;BME280;43755;49.736;8.734;2023-01-28T07:00:23;98756.88;;;0.13;100.00
11448;BME280;43755;49.736;8.734;2023-01-28T07:02:25;98758.69;;;0.17;100.00
11448;BME280;43755;49.736;8.734;2023-01-28T07:04:26;98761.34;;;0.23;100.00
11448;BME280;43755;49.736;8.734;2023-01-28T07:06:27;98757.97;;;0.33;100.00
11448;BME280;43755;49.736;8.734;2023-01-28T07:08:29;98763.22;;;0.38;100.00
11448;BME280;43755;49.736;8.734;2023-01-28T07:10:30;98763.16;;;0.32;100.00
11448;BME280;43755;49.736;8.734;2023-01-28T07:12:32;98771.72;;;0.22;100.00
11448;BME280;43755;49.736;8.734;2023-01-28T07:14:33;98772.50;;;0.12;100.00
11448;BME280;43755;49.736;8.734;2023-01-28T07:16:36;98764.66;;;0.10;100.00
11448;BME280;43755;49.736;8.734;2023-01-28T07:18:37;98774.94;;;0.01;100.00
11448;BME280;43755;49.736;8.734;2023-01-28T07:20:38;98778.53;;;0.09;100.00
11448;BME280;43755;49.736;8.734;2023-01-28T07:22:41;98776.94;;;0.22;100.00
11448;BME280;43755;49.736;8.734;2023-01-28T07:24:43;98770.81;;;0.17;100.00
11448;BME280;43755;49.736;8.734;2023-01-28T07:26:46;98778.59;;;0.18;100.00
11448;BME280;43755;49.736;8.734;2023-01-28T07:28:48;98774.25;;;0.16;100.00
11448;BME280;43755;49.736;8.734;2023-01-28T07:30:49;98768.16;;;0.11;100.00
11448;BME280;43755;49.736;8.734;2023-01-28T07:32:58;98770.75;;;0.11;100.00
11448;BME280;43755;49.736;8.734;2023-01-28T07:35:00;98767.38;;;0.21;100.00
11448;BME280;43755;49.736;8.734;2023-01-28T07:37:01;98764.78;;;0.22;100.00
11448;BME280;43755;49.736;8.734;2023-01-28T07:39:03;98768.22;;;0.17;100.00
11448;BME280;43755;49.736;8.734;2023-01-28T07:41:04;98764.69;;;0.13;100.00
11448;BME280;43755;49.736;8.734;2023-01-28T07:43:06;98762.03;;;0.09;100.00
11448;BME280;43755;49.736;8.734;2023-01-28T07:45:08;98761.25;;;0.16;100.00
11448;BME280;43755;49.736;8.734;2023-01-28T07:47:09;98766.44;;;0.14;100.00
11448;BME280;43755;49.736;8.734;2023-01-28T07:49:12;98760.41;;;0.17;100.00
11448;BME280;43755;49.736;8.734;2023-01-28T07:51:13;98771.78;;;0.26;100.00
11448;BME280;43755;49.736;8.734;2023-01-28T07:53:15;98776.19;;;0.33;100.00
11448;BME280;43755;49.736;8.734;2023-01-28T07:55:16;98778.69;;;0.24;100.00
11448;BME280;43755;49.736;8.734;2023-01-28T07:57:18;98780.41;;;0.22;100.00
11448;BME280;43755;49.736;8.734;2023-01-28T07:59:22;98785.53;;;0.18;100.00
11448;BME280;43755;49.736;8.734;2023-01-28T08:01:23;98785.56;;;0.19;100.00
11448;BME280;43755;49.736;8.734;2023-01-28T08:03:25;98785.63;;;0.22;100.00
11448;BME280;43755;49.736;8.734;2023-01-28T08:05:36;98795.09;;;0.16;100.00
11448;BME280;43755;49.736;8.734;2023-01-28T08:07:40;98795.94;;;0.15;100.00
11448;BME280;43755;49.736;8.734;2023-01-28T08:09:41;98789.03;;;0.17;100.00
11448;BME280;43755;49.736;8.734;2023-01-28T08:11:43;98796.84;;;0.17;100.00
11448;BME280;43755;49.736;8.734;2023-01-28T08:13:44;98806.38;;;0.19;100.00
11448;BME280;43755;49.736;8.734;2023-01-28T08:15:46;98805.50;;;0.16;100.00
11448;BME280;43755;49.736;8.734;2023-01-28T08:17:47;98800.25;;;0.14;100.00
11448;BME280;43755;49.736;8.734;2023-01-28T08:19:49;98807.38;;;0.29;100.00
11448;BME280;43755;49.736;8.734;2023-01-28T08:21:52;98808.19;;;0.23;100.00
11448;BME280;43755;49.736;8.734;2023-01-28T08:23:53;98805.66;;;0.32;100.00
11448;BME280;43755;49.736;8.734;2023-01-28T08:25:57;98806.56;;;0.36;100.00
11448;BME280;43755;49.736;8.734;2023-01-28T08:27:59;98807.44;;;0.35;100.00
11448;BME280;43755;49.736;8.734;2023-01-28T08:30:00;98810.91;;;0.34;100.00
11448;BME280;43755;49.736;8.734;2023-01-28T08:32:01;98810.97;;;0.40;100.00
11448;BME280;43755;49.736;8.734;2023-01-28T08:34:03;98816.00;;;0.26;100.00
11448;BME280;43755;49.736;8.734;2023-01-28T08:36:05;98809.00;;;0.21;100.00
11448;BME280;43755;49.736;8.734;2023-01-28T08:38:10;98812.63;;;0.33;100.00
11448;BME280;43755;49.736;8.734;2023-01-28T08:40:12;98815.16;;;0.27;100.00
11448;BME280;43755;49.736;8.734;2023-01-28T08:42:13;98817.72;;;0.24;100.00
11448;BME280;43755;49.736;8.734;2023-01-28T08:44:15;98814.41;;;0.39;100.00
11448;BME280;43755;49.736;8.734;2023-01-28T08:46:16;98815.19;;;0.30;100.00
11448;BME280;43755;49.736;8.734;2023-01-28T08:48:18;98817.75;;;0.27;100.00
11448;BME280;43755;49.736;8.734;2023-01-28T08:50:20;98813.53;;;0.38;100.00
11448;BME280;43755;49.736;8.734;2023-01-28T08:52:22;98810.13;;;0.44;100.00
11448;BME280;43755;49.736;8.734;2023-01-28T08:54:25;98801.47;;;0.47;100.00
11448;BME280;43755;49.736;8.734;2023-01-28T08:56:26;98809.31;;;0.50;100.00
11448;BME280;43755;49.736;8.734;2023-01-28T08:58:29;98811.81;;;0.42;100.00
11448;BME280;43755;49.736;8.734;2023-01-28T09:00:31;98812.63;;;0.36;100.00
11448;BME280;43755;49.736;8.734;2023-01-28T09:02:33;98814.47;;;0.45;100.00
11448;BME280;43755;49.736;8.734;2023-01-28T09:04:34;98821.38;;;0.43;100.00
11448;BME280;43755;49.736;8.734;2023-01-28T09:06:36;98818.75;;;0.38;100.00
11448;BME280;43755;49.736;8.734;2023-01-28T09:08:37;98817.06;;;0.44;100.00
11448;BME280;43755;49.736;8.734;2023-01-28T09:10:40;98809.34;;;0.51;100.00
11448;BME280;43755;49.736;8.734;2023-01-28T09:12:42;98810.16;;;0.46;100.00
11448;BME280;43755;49.736;8.734;2023-01-28T09:14:43;98819.75;;;0.54;100.00
11448;BME280;43755;49.736;8.734;2023-01-28T09:16:44;98817.28;;;0.65;100.00
11448;BME280;43755;49.736;8.734;2023-01-28T09:18:46;98821.59;;;0.66;100.00
11448;BME280;43755;49.736;8.734;2023-01-28T09:20:48;98826.94;;;0.78;100.00
11448;BME280;43755;49.736;8.734;2023-01-28T09:22:49;98821.66;;;0.72;100.00
11448;BME280;43755;49.736;8.734;2023-01-28T09:24:51;98829.41;;;0.66;100.00
11448;BME280;43755;49.736;8.734;2023-01-28T09:26:54;98837.16;;;0.57;100.00
11448;BME280;43755;49.736;8.734;2023-01-28T09:28:55;98839.72;;;0.52;100.00
11448;BME280;43755;49.736;8.734;2023-01-28T09:31:00;98838.03;;;0.60;100.00
11448;BME280;43755;49.736;8.734;2023-01-28T09:33:02;98841.56;;;0.64;100.00
11448;BME280;43755;49.736;8.734;2023-01-28T09:35:04;98846.78;;;0.67;100.00
11448;BME280;43755;49.736;8.734;2023-01-28T09:37:06;98848.41;;;0.56;100.00
11448;BME280;43755;49.736;8.734;2023-01-28T09:39:07;98850.25;;;0.63;100.00
11448;BME280;43755;49.736;8.734;2023-01-28T09:41:21;98851.13;;;0.63;100.00
11448;BME280;43755;49.736;8.734;2023-01-28T09:43:36;98856.44;;;0.77;100.00
11448;BME280;43755;49.736;8.734;2023-01-28T09:45:44;98846.97;;;0.82;100.00
11448;BME280;43755;49.736;8.734;2023-01-28T09:47:50;98853.03;;;0.84;100.00
11448;BME280;43755;49.736;8.734;2023-01-28T09:49:54;98846.97;;;0.82;100.00
11448;BME280;43755;49.736;8.734;2023-01-28T09:51:58;98860.81;;;0.82;100.00
11448;BME280;43755;49.736;8.734;2023-01-28T09:54:02;98848.53;;;0.65;100.00
11448;BME280;43755;49.736;8.734;2023-01-28T09:56:10;98851.22;;;0.77;100.00
11448;BME280;43755;49.736;8.734;2023-01-28T09:58:14;98854.69;;;0.74;100.00
11448;BME280;43755;49.736;8.734;2023-01-28T10:00:21;98844.19;;;0.67;100.00
11448;BME280;43755;49.736;8.734;2023-01-28T10:02:34;98845.19;;;0.82;100.00
11448;BME280;43755;49.736;8.734;2023-01-28T10:04:48;98848.69;;;0.83;100.00
11448;BME280;43755;49.736;8.734;2023-01-28T10:07:04;98852.16;;;0.82;100.00
11448;BME280;43755;49.736;8.734;2023-01-28T10:09:22;98857.38;;;0.82;100.00
11448;BME280;43755;49.736;8.734;2023-01-28T10:11:37;98863.38;;;0.75;100.00
11448;BME280;43755;49.736;8.734;2023-01-28T10:13:47;98858.19;;;0.76;100.00
11448;BME280;43755;49.736;8.734;2023-01-28T10:15:59;98858.34;;;0.93;100.00
11448;BME280;43755;49.736;8.734;2023-01-28T10:18:08;98854.16;;;1.12;100.00
11448;BME280;43755;49.736;8.734;2023-01-28T10:20:17;98861.84;;;0.97;100.00
11448;BME280;43755;49.736;8.734;2023-01-28T10:22:24;98853.97;;;0.91;100.00
11448;BME280;43755;49.736;8.734;2023-01-28T10:24:30;98854.88;;;0.93;100.00
11448;BME280;43755;49.736;8.734;2023-01-28T10:26:37;98854.94;;;1.02;100.00
11448;BME280;43755;49.736;8.734;2023-01-28T10:28:39;98857.69;;;1.20;100.00
11448;BME280;43755;49.736;8.734;2023-01-28T10:30:41;98853.31;;;1.16;100.00
11448;BME280;43755;49.736;8.734;2023-01-28T10:32:51;98852.44;;;1.15;100.00
11448;BME280;43755;49.736;8.734;2023-01-28T10:34:53;98858.56;;;1.17;100.00
11448;BME280;43755;49.736;8.734;2023-01-28T10:36:56;98864.44;;;0.95;100.00
11448;BME280;43755;49.736;8.734;2023-01-28T10:38:58;98855.81;;;1.04;100.00
11448;BME280;43755;49.736;8.734;2023-01-28T10:41:02;98868.94;;;1.11;100.00
11448;BME280;43755;49.736;8.734;2023-01-28T10:43:04;98855.00;;;1.09;100.00
11448;BME280;43755;49.736;8.734;2023-01-28T10:45:16;98872.38;;;1.06;100.00
11448;BME280;43755;49.736;8.734;2023-01-28T10:47:24;98869.78;;;1.13;100.00
11448;BME280;43755;49.736;8.734;2023-01-28T10:49:29;98884.50;;;1.07;100.00
11448;BME280;43755;49.736;8.734;2023-01-28T10:51:34;98873.16;;;1.00;100.00
11448;BME280;43755;49.736;8.734;2023-01-28T10:53:37;98863.63;;;1.02;100.00
11448;BME280;43755;49.736;8.734;2023-01-28T10:55:48;98873.31;;;1.15;100.00
11448;BME280;43755;49.736;8.734;2023-01-28T10:57:50;98880.19;;;1.09;100.00